Terminal Aerodrome Forecast
Issued by NWS

Home | Current Version | Previous Version | Text Only | Print | Product List | Glossary On
Versions: 1 2 3 4 5 6 7 8 9 10 11 12 13 14 15 16 17 18 19 20 21 22 23 24 25 26 27 28 29
000
FTAK31 PAFA 200520
TAFAMC
TAF
PAMC 200520Z 2006/2106 VRB03KT 5SM BR BKN050
     FM201300 VRB03KT 4SM -RA BR SCT010 BKN025 OVC040
     FM202300 33003KT 5SM BR OVC050=

USA.gov is the U.S. government's official web portal to all federal, state and local government web resources and services.